Sandberg, CA

3:18 PM PDT on June 24, 2018 (GMT -0700)
Sandberg | | Change Station

Elev 4524 ft 34.75 °N, 118.73 °W | Updated 25 minutes ago

Clear
Clear
80 °F
Feels Like 80 °F
N
16
Wind Variable Wind from SSW
Gusts 26 mph

Today
High -- | Low -- °F
--% Chance of Precip.
Yesterday
High -- | Low -- °F
Precip. -- in
Pressure 29.91 in
Visibility 10.0 miles
Clouds Clear
Dew Point 49 °F
Humidity 34%
Rainfall 0.00 in
Snow Depth Not available.
5:42 AM 8:11 PM
Waxing Gibbous, 90% visible
METAR KSDB 242153Z AUTO 21014G23KT 10SM CLR 27/09 A3008 RMK AO2 PK WND 22027/2056 SLP127 T02670094
Pressure 29.91 in
Visibility 10.0 miles
Clouds Clear
Dew Point 49 °F
Humidity 34%
Rainfall 0.00 in
Snow Depth Not available.
5:42 AM 8:11 PM
Waxing Gibbous, 90% visible
METAR KSDB 242153Z AUTO 21014G23KT 10SM CLR 27/09 A3008 RMK AO2 PK WND 22027/2056 SLP127 T02670094

Get Severe Weather Alerts

Thanks for signing up!

Be on the lookout for a verification email in your inbox.

You'll start receiving the daily forecast at 6 AM.

×

10-Day Weather Forecast

Almanac

Astronomy

Jun. 24, 2018 Rise Set
Actual Time
Civil Twilight
Nautical Twilight
Astronomical Twilight
Moon
Length of Visible Light
Length of Day
Tomorrow will be .
, % of the Moon is Illuminated

Today's Extremes

State Highs State Lows

Community

WunderPhotos

Category 6

Welcome to Category 6. This is the collective home for Weather Underground's featured writeups by Dr. Jeff Masters (right), Bob Henson (left), Chris Burt, and other regular contributors.

Nearby

Air Quality

  Air Quality AQ Index Pollutant
Not available.

Snow Depth

Station Depth Elevation

Earthquake Activity

City Distance Mag. Time & Date
Minimum magnitude displayed is 2.5.

Coastal Water Temperatures

Place Temperature

Stations

Nearby Weather Stations

Station Location Temp. Windchill Dew Point Humidity Wind Precip. Elev Updated Type
                   

Watches & Warnings

There are currently no watches in effect.